sensor_id;sensor_type;location;lat;lon;timestamp;temperature;humidity
2162;DHT22;1087;50.226;8.682;2022-12-18T00:02:00;-4.10;99.90
2162;DHT22;1087;50.226;8.682;2022-12-18T00:04:26;-4.10;99.90
2162;DHT22;1087;50.226;8.682;2022-12-18T00:06:52;-4.10;99.90
2162;DHT22;1087;50.226;8.682;2022-12-18T00:09:18;-4.00;99.90
2162;DHT22;1087;50.226;8.682;2022-12-18T00:11:44;-4.00;99.90
2162;DHT22;1087;50.226;8.682;2022-12-18T00:14:11;-4.00;99.90
2162;DHT22;1087;50.226;8.682;2022-12-18T00:16:37;-4.10;99.90
2162;DHT22;1087;50.226;8.682;2022-12-18T00:19:03;-4.00;99.90
2162;DHT22;1087;50.226;8.682;2022-12-18T00:21:30;-4.00;99.90
2162;DHT22;1087;50.226;8.682;2022-12-18T00:23:57;-4.10;99.90
2162;DHT22;1087;50.226;8.682;2022-12-18T00:26:28;-4.10;99.90
2162;DHT22;1087;50.226;8.682;2022-12-18T00:28:54;-4.10;99.90
2162;DHT22;1087;50.226;8.682;2022-12-18T00:31:23;-4.20;99.90
2162;DHT22;1087;50.226;8.682;2022-12-18T00:33:50;-4.20;99.90
2162;DHT22;1087;50.226;8.682;2022-12-18T00:36:18;-4.20;99.90
2162;DHT22;1087;50.226;8.682;2022-12-18T00:38:44;-4.30;99.90
2162;DHT22;1087;50.226;8.682;2022-12-18T00:41:11;-4.30;99.90
2162;DHT22;1087;50.226;8.682;2022-12-18T00:43:38;-4.40;99.90
2162;DHT22;1087;50.226;8.682;2022-12-18T00:46:04;-4.40;99.90
2162;DHT22;1087;50.226;8.682;2022-12-18T00:48:29;-4.40;99.90
2162;DHT22;1087;50.226;8.682;2022-12-18T00:50:55;-4.40;99.90
2162;DHT22;1087;50.226;8.682;2022-12-18T00:53:21;-4.30;99.90
2162;DHT22;1087;50.226;8.682;2022-12-18T00:55:46;-4.30;99.90
2162;DHT22;1087;50.226;8.682;2022-12-18T00:58:14;-4.30;99.90
2162;DHT22;1087;50.226;8.682;2022-12-18T01:00:39;-4.30;99.90
2162;DHT22;1087;50.226;8.682;2022-12-18T01:03:05;-4.30;99.90
2162;DHT22;1087;50.226;8.682;2022-12-18T01:05:31;-4.20;99.90
2162;DHT22;1087;50.226;8.682;2022-12-18T01:07:57;-4.30;99.90
2162;DHT22;1087;50.226;8.682;2022-12-18T01:10:23;-4.30;99.90
2162;DHT22;1087;50.226;8.682;2022-12-18T01:12:49;-4.40;99.90
2162;DHT22;1087;50.226;8.682;2022-12-18T01:15:15;-4.30;99.90
2162;DHT22;1087;50.226;8.682;2022-12-18T01:17:41;-4.30;99.90
2162;DHT22;1087;50.226;8.682;2022-12-18T01:20:07;-4.40;99.90
2162;DHT22;1087;50.226;8.682;2022-12-18T01:22:34;-4.40;99.90
2162;DHT22;1087;50.226;8.682;2022-12-18T01:24:59;-4.50;99.90
2162;DHT22;1087;50.226;8.682;2022-12-18T01:27:25;-4.50;99.90
2162;DHT22;1087;50.226;8.682;2022-12-18T01:29:51;-4.30;99.90
2162;DHT22;1087;50.226;8.682;2022-12-18T01:32:16;-4.40;99.90
2162;DHT22;1087;50.226;8.682;2022-12-18T01:34:42;-4.40;99.90
2162;DHT22;1087;50.226;8.682;2022-12-18T01:37:07;-4.40;99.90
2162;DHT22;1087;50.226;8.682;2022-12-18T01:39:33;-4.40;99.90
2162;DHT22;1087;50.226;8.682;2022-12-18T01:42:02;-4.40;99.90
2162;DHT22;1087;50.226;8.682;2022-12-18T01:44:54;-4.30;99.90
2162;DHT22;1087;50.226;8.682;2022-12-18T01:49:54;-4.40;99.90
2162;DHT22;1087;50.226;8.682;2022-12-18T01:52:21;-4.50;99.90
2162;DHT22;1087;50.226;8.682;2022-12-18T01:54:49;-4.50;99.90
2162;DHT22;1087;50.226;8.682;2022-12-18T01:57:16;-4.50;99.90
2162;DHT22;1087;50.226;8.682;2022-12-18T01:59:43;-4.40;99.90
2162;DHT22;1087;50.226;8.682;2022-12-18T02:02:10;-4.40;99.90
2162;DHT22;1087;50.226;8.682;2022-12-18T02:04:36;-4.40;99.90
2162;DHT22;1087;50.226;8.682;2022-12-18T02:09:54;-4.50;99.90
2162;DHT22;1087;50.226;8.682;2022-12-18T02:12:28;-4.60;99.90
2162;DHT22;1087;50.226;8.682;2022-12-18T02:15:19;-4.60;99.90
2162;DHT22;1087;50.226;8.682;2022-12-18T02:17:55;-4.60;99.90
2162;DHT22;1087;50.226;8.682;2022-12-18T02:20:28;-4.50;99.90
2162;DHT22;1087;50.226;8.682;2022-12-18T02:26:00;-4.70;99.90
2162;DHT22;1087;50.226;8.682;2022-12-18T02:28:31;-4.60;99.90
2162;DHT22;1087;50.226;8.682;2022-12-18T02:30:59;-4.60;99.90
2162;DHT22;1087;50.226;8.682;2022-12-18T02:33:27;-4.70;99.90
2162;DHT22;1087;50.226;8.682;2022-12-18T02:35:55;-4.60;99.90
2162;DHT22;1087;50.226;8.682;2022-12-18T02:38:23;-4.50;99.90
2162;DHT22;1087;50.226;8.682;2022-12-18T02:40:51;-4.60;99.90
2162;DHT22;1087;50.226;8.682;2022-12-18T02:43:18;-4.50;99.90
2162;DHT22;1087;50.226;8.682;2022-12-18T02:45:57;-4.50;99.90
2162;DHT22;1087;50.226;8.682;2022-12-18T02:48:27;-4.40;99.90
2162;DHT22;1087;50.226;8.682;2022-12-18T02:51:06;-4.50;99.90
2162;DHT22;1087;50.226;8.682;2022-12-18T02:53:52;-4.40;99.90
2162;DHT22;1087;50.226;8.682;2022-12-18T02:56:35;-4.40;99.90
2162;DHT22;1087;50.226;8.682;2022-12-18T02:59:08;-4.40;99.90
2162;DHT22;1087;50.226;8.682;2022-12-18T03:06:41;-4.50;99.90
2162;DHT22;1087;50.226;8.682;2022-12-18T03:09:11;-4.50;99.90
2162;DHT22;1087;50.226;8.682;2022-12-18T03:11:42;-4.50;99.90
2162;DHT22;1087;50.226;8.682;2022-12-18T03:14:30;-4.50;99.90
2162;DHT22;1087;50.226;8.682;2022-12-18T03:17:00;-4.50;99.90
2162;DHT22;1087;50.226;8.682;2022-12-18T03:19:28;-4.60;99.90
2162;DHT22;1087;50.226;8.682;2022-12-18T03:21:56;-4.60;99.90
2162;DHT22;1087;50.226;8.682;2022-12-18T03:24:24;-4.50;99.90
2162;DHT22;1087;50.226;8.682;2022-12-18T03:26:54;-4.50;99.90
2162;DHT22;1087;50.226;8.682;2022-12-18T03:29:24;-4.60;99.90
2162;DHT22;1087;50.226;8.682;2022-12-18T03:31:53;-4.50;99.90
2162;DHT22;1087;50.226;8.682;2022-12-18T03:34:23;-4.60;99.90
2162;DHT22;1087;50.226;8.682;2022-12-18T03:36:51;-4.60;99.90
2162;DHT22;1087;50.226;8.682;2022-12-18T03:39:17;-4.50;99.90
2162;DHT22;1087;50.226;8.682;2022-12-18T03:42:04;-4.60;99.90
2162;DHT22;1087;50.226;8.682;2022-12-18T03:44:44;-4.60;99.90
2162;DHT22;1087;50.226;8.682;2022-12-18T03:48:17;-4.60;99.90
2162;DHT22;1087;50.226;8.682;2022-12-18T03:50:19;-4.70;99.90
2162;DHT22;1087;50.226;8.682;2022-12-18T03:55:34;-4.80;99.90
2162;DHT22;1087;50.226;8.682;2022-12-18T03:58:01;-4.90;99.90
2162;DHT22;1087;50.226;8.682;2022-12-18T04:00:29;-4.80;99.90
2162;DHT22;1087;50.226;8.682;2022-12-18T04:02:57;-4.80;99.90
2162;DHT22;1087;50.226;8.682;2022-12-18T04:05:27;-4.80;99.90
2162;DHT22;1087;50.226;8.682;2022-12-18T04:07:54;-4.90;99.90
2162;DHT22;1087;50.226;8.682;2022-12-18T04:10:21;-4.90;99.90
2162;DHT22;1087;50.226;8.682;2022-12-18T04:12:47;-4.90;99.90
2162;DHT22;1087;50.226;8.682;2022-12-18T04:15:13;-4.90;99.90
2162;DHT22;1087;50.226;8.682;2022-12-18T04:17:48;-4.80;99.90
2162;DHT22;1087;50.226;8.682;2022-12-18T04:20:15;-4.80;99.90
2162;DHT22;1087;50.226;8.682;2022-12-18T04:22:40;-4.80;99.90
2162;DHT22;1087;50.226;8.682;2022-12-18T04:25:06;-4.90;99.90
2162;DHT22;1087;50.226;8.682;2022-12-18T04:27:32;-4.90;99.90
2162;DHT22;1087;50.226;8.682;2022-12-18T04:29:57;-4.90;99.90
2162;DHT22;1087;50.226;8.682;2022-12-18T04:32:23;-4.80;99.90
2162;DHT22;1087;50.226;8.682;2022-12-18T04:34:48;-4.80;99.90
2162;DHT22;1087;50.226;8.682;2022-12-18T04:37:14;-4.90;99.90
2162;DHT22;1087;50.226;8.682;2022-12-18T04:39:39;-4.80;99.90
2162;DHT22;1087;50.226;8.682;2022-12-18T04:42:05;-4.90;99.90
2162;DHT22;1087;50.226;8.682;2022-12-18T04:44:30;-4.80;99.90
2162;DHT22;1087;50.226;8.682;2022-12-18T04:46:56;-4.80;99.90
2162;DHT22;1087;50.226;8.682;2022-12-18T04:49:21;-4.90;99.90
2162;DHT22;1087;50.226;8.682;2022-12-18T04:51:47;-4.90;99.90
2162;DHT22;1087;50.226;8.682;2022-12-18T04:54:12;-5.00;99.90
2162;DHT22;1087;50.226;8.682;2022-12-18T04:56:38;-5.00;99.90
2162;DHT22;1087;50.226;8.682;2022-12-18T04:59:04;-4.90;99.90
2162;DHT22;1087;50.226;8.682;2022-12-18T05:01:30;-4.90;99.90
2162;DHT22;1087;50.226;8.682;2022-12-18T05:03:55;-4.90;99.90
2162;DHT22;1087;50.226;8.682;2022-12-18T05:06:21;-4.90;99.90
2162;DHT22;1087;50.226;8.682;2022-12-18T05:08:46;-5.00;99.90
2162;DHT22;1087;50.226;8.682;2022-12-18T05:11:14;-5.00;99.90
2162;DHT22;1087;50.226;8.682;2022-12-18T05:13:44;-5.00;99.90
2162;DHT22;1087;50.226;8.682;2022-12-18T05:16:10;-5.20;99.90
2162;DHT22;1087;50.226;8.682;2022-12-18T05:18:36;-5.20;99.90
2162;DHT22;1087;50.226;8.682;2022-12-18T05:21:02;-5.20;99.90
2162;DHT22;1087;50.226;8.682;2022-12-18T05:23:28;-5.20;99.90
2162;DHT22;1087;50.226;8.682;2022-12-18T05:25:56;-5.20;99.90
2162;DHT22;1087;50.226;8.682;2022-12-18T05:28:23;-5.10;99.90
2162;DHT22;1087;50.226;8.682;2022-12-18T05:30:50;-5.20;99.90
2162;DHT22;1087;50.226;8.682;2022-12-18T05:33:17;-5.20;99.90
2162;DHT22;1087;50.226;8.682;2022-12-18T05:35:43;-5.10;99.90
2162;DHT22;1087;50.226;8.682;2022-12-18T05:38:08;-5.10;99.90
2162;DHT22;1087;50.226;8.682;2022-12-18T05:40:34;-5.10;99.90
2162;DHT22;1087;50.226;8.682;2022-12-18T05:42:59;-5.10;99.90
2162;DHT22;1087;50.226;8.682;2022-12-18T05:45:25;-5.10;99.90
2162;DHT22;1087;50.226;8.682;2022-12-18T05:47:50;-5.10;99.90
2162;DHT22;1087;50.226;8.682;2022-12-18T05:50:16;-5.10;99.90
2162;DHT22;1087;50.226;8.682;2022-12-18T05:52:41;-5.20;99.90
2162;DHT22;1087;50.226;8.682;2022-12-18T05:55:07;-5.20;99.90
2162;DHT22;1087;50.226;8.682;2022-12-18T05:57:33;-5.30;99.90
2162;DHT22;1087;50.226;8.682;2022-12-18T05:59:58;-5.30;99.90
2162;DHT22;1087;50.226;8.682;2022-12-18T06:02:24;-5.20;99.90
2162;DHT22;1087;50.226;8.682;2022-12-18T06:04:49;-5.20;99.90
2162;DHT22;1087;50.226;8.682;2022-12-18T06:07:15;-5.10;99.90
2162;DHT22;1087;50.226;8.682;2022-12-18T06:09:40;-5.10;99.90
2162;DHT22;1087;50.226;8.682;2022-12-18T06:12:06;-5.20;99.90
2162;DHT22;1087;50.226;8.682;2022-12-18T06:14:32;-5.10;99.90
2162;DHT22;1087;50.226;8.682;2022-12-18T06:16:57;-5.30;99.90
2162;DHT22;1087;50.226;8.682;2022-12-18T06:19:23;-5.30;99.90
2162;DHT22;1087;50.226;8.682;2022-12-18T06:21:49;-5.30;99.90
2162;DHT22;1087;50.226;8.682;2022-12-18T06:24:15;-5.20;99.90
2162;DHT22;1087;50.226;8.682;2022-12-18T06:26:41;-5.20;99.90
2162;DHT22;1087;50.226;8.682;2022-12-18T06:29:06;-5.20;99.90
2162;DHT22;1087;50.226;8.682;2022-12-18T06:31:32;-5.30;99.90
2162;DHT22;1087;50.226;8.682;2022-12-18T06:33:57;-5.20;99.90
2162;DHT22;1087;50.226;8.682;2022-12-18T06:36:23;-5.20;99.90
2162;DHT22;1087;50.226;8.682;2022-12-18T06:38:49;-5.20;99.90
2162;DHT22;1087;50.226;8.682;2022-12-18T06:41:17;-5.10;99.90
2162;DHT22;1087;50.226;8.682;2022-12-18T06:43:43;-5.20;99.90
2162;DHT22;1087;50.226;8.682;2022-12-18T06:46:09;-5.20;99.90
2162;DHT22;1087;50.226;8.682;2022-12-18T06:48:34;-5.10;99.90
2162;DHT22;1087;50.226;8.682;2022-12-18T06:51:00;-5.10;99.90
2162;DHT22;1087;50.226;8.682;2022-12-18T06:53:26;-5.20;99.90
2162;DHT22;1087;50.226;8.682;2022-12-18T06:55:52;-5.20;99.90
2162;DHT22;1087;50.226;8.682;2022-12-18T06:58:18;-5.20;99.90
2162;DHT22;1087;50.226;8.682;2022-12-18T07:00:44;-5.20;99.90
2162;DHT22;1087;50.226;8.682;2022-12-18T07:03:10;-5.20;99.90
2162;DHT22;1087;50.226;8.682;2022-12-18T07:05:40;-5.20;99.90
2162;DHT22;1087;50.226;8.682;2022-12-18T07:08:06;-5.30;99.90
2162;DHT22;1087;50.226;8.682;2022-12-18T07:10:32;-5.30;99.90
2162;DHT22;1087;50.226;8.682;2022-12-18T07:12:57;-5.20;99.90
2162;DHT22;1087;50.226;8.682;2022-12-18T07:15:22;-5.30;99.90
2162;DHT22;1087;50.226;8.682;2022-12-18T07:17:48;-5.20;99.90
2162;DHT22;1087;50.226;8.682;2022-12-18T07:20:13;-5.20;99.90
2162;DHT22;1087;50.226;8.682;2022-12-18T07:22:39;-5.20;99.90
2162;DHT22;1087;50.226;8.682;2022-12-18T07:25:05;-5.10;99.90
2162;DHT22;1087;50.226;8.682;2022-12-18T07:27:30;-5.00;99.90
2162;DHT22;1087;50.226;8.682;2022-12-18T07:29:56;-5.00;99.90
2162;DHT22;1087;50.226;8.682;2022-12-18T07:32:22;-5.10;99.90
2162;DHT22;1087;50.226;8.682;2022-12-18T07:34:47;-5.10;99.90
2162;DHT22;1087;50.226;8.682;2022-12-18T07:37:13;-5.10;99.90
2162;DHT22;1087;50.226;8.682;2022-12-18T07:39:38;-5.20;99.90
2162;DHT22;1087;50.226;8.682;2022-12-18T07:42:04;-5.20;99.90
2162;DHT22;1087;50.226;8.682;2022-12-18T07:44:48;-5.20;99.90
2162;DHT22;1087;50.226;8.682;2022-12-18T07:47:14;-5.20;99.90
2162;DHT22;1087;50.226;8.682;2022-12-18T07:49:40;-5.20;99.90
2162;DHT22;1087;50.226;8.682;2022-12-18T07:52:05;-5.10;99.90
2162;DHT22;1087;50.226;8.682;2022-12-18T07:54:31;-5.10;99.90
2162;DHT22;1087;50.226;8.682;2022-12-18T07:56:56;-5.20;99.90
2162;DHT22;1087;50.226;8.682;2022-12-18T07:59:22;-5.20;99.90
2162;DHT22;1087;50.226;8.682;2022-12-18T08:01:47;-5.20;99.90
2162;DHT22;1087;50.226;8.682;2022-12-18T08:04:13;-5.20;99.90
2162;DHT22;1087;50.226;8.682;2022-12-18T08:06:38;-5.20;99.90
2162;DHT22;1087;50.226;8.682;2022-12-18T08:09:03;-5.20;99.90
2162;DHT22;1087;50.226;8.682;2022-12-18T08:11:29;-5.20;99.90
2162;DHT22;1087;50.226;8.682;2022-12-18T08:13:55;-5.20;99.90
2162;DHT22;1087;50.226;8.682;2022-12-18T08:16:22;-5.20;99.90
2162;DHT22;1087;50.226;8.682;2022-12-18T08:18:48;-5.10;99.90
2162;DHT22;1087;50.226;8.682;2022-12-18T08:21:29;-5.10;99.90
2162;DHT22;1087;50.226;8.682;2022-12-18T08:23:56;-5.00;99.90
2162;DHT22;1087;50.226;8.682;2022-12-18T08:26:23;-5.00;99.90
2162;DHT22;1087;50.226;8.682;2022-12-18T08:28:50;-5.00;99.90
2162;DHT22;1087;50.226;8.682;2022-12-18T08:31:16;-5.00;99.90
2162;DHT22;1087;50.226;8.682;2022-12-18T08:33:42;-5.00;99.90
2162;DHT22;1087;50.226;8.682;2022-12-18T08:36:09;-5.00;99.90
2162;DHT22;1087;50.226;8.682;2022-12-18T08:38:35;-4.90;99.90
2162;DHT22;1087;50.226;8.682;2022-12-18T08:41:09;-4.90;99.90
2162;DHT22;1087;50.226;8.682;2022-12-18T08:43:35;-4.70;99.90
2162;DHT22;1087;50.226;8.682;2022-12-18T08:46:20;-4.80;99.90
2162;DHT22;1087;50.226;8.682;2022-12-18T08:48:47;-4.80;99.90
2162;DHT22;1087;50.226;8.682;2022-12-18T08:51:13;-4.70;99.90
2162;DHT22;1087;50.226;8.682;2022-12-18T08:53:40;-4.80;99.90
2162;DHT22;1087;50.226;8.682;2022-12-18T08:56:06;-4.70;99.90
2162;DHT22;1087;50.226;8.682;2022-12-18T08:58:32;-4.70;99.90
2162;DHT22;1087;50.226;8.682;2022-12-18T09:01:04;-4.70;99.90
2162;DHT22;1087;50.226;8.682;2022-12-18T09:03:30;-4.70;99.90
2162;DHT22;1087;50.226;8.682;2022-12-18T09:05:55;-4.70;99.90
2162;DHT22;1087;50.226;8.682;2022-12-18T09:08:21;-4.80;99.90
2162;DHT22;1087;50.226;8.682;2022-12-18T09:10:48;-4.70;99.90
2162;DHT22;1087;50.226;8.682;2022-12-18T09:13:15;-4.70;99.90
2162;DHT22;1087;50.226;8.682;2022-12-18T09:15:46;-4.60;99.90
2162;DHT22;1087;50.226;8.682;2022-12-18T09:18:13;-4.50;99.90
2162;DHT22;1087;50.226;8.682;2022-12-18T09:20:39;-4.50;99.90
2162;DHT22;1087;50.226;8.682;2022-12-18T09:23:06;-4.40;99.90
2162;DHT22;1087;50.226;8.682;2022-12-18T09:25:32;-4.40;99.90
2162;DHT22;1087;50.226;8.682;2022-12-18T09:27:59;-4.40;99.90
2162;DHT22;1087;50.226;8.682;2022-12-18T09:30:26;-4.40;99.90
2162;DHT22;1087;50.226;8.682;2022-12-18T09:32:51;-4.40;99.90
2162;DHT22;1087;50.226;8.682;2022-12-18T09:35:17;-4.40;99.90
2162;DHT22;1087;50.226;8.682;2022-12-18T09:37:42;-4.40;99.90
2162;DHT22;1087;50.226;8.682;2022-12-18T09:40:14;-4.30;99.90
2162;DHT22;1087;50.226;8.682;2022-12-18T09:42:45;-4.30;99.90
2162;DHT22;1087;50.226;8.682;2022-12-18T09:45:15;-4.20;99.90
2162;DHT22;1087;50.226;8.682;2022-12-18T09:47:43;-4.10;99.90
2162;DHT22;1087;50.226;8.682;2022-12-18T09:50:27;-4.10;99.90
2162;DHT22;1087;50.226;8.682;2022-12-18T09:52:57;-4.10;99.90
2162;DHT22;1087;50.226;8.682;2022-12-18T09:55:31;-4.00;99.90
2162;DHT22;1087;50.226;8.682;2022-12-18T10:00:37;-3.90;99.90
2162;DHT22;1087;50.226;8.682;2022-12-18T10:03:11;-3.80;99.90
2162;DHT22;1087;50.226;8.682;2022-12-18T10:05:51;-3.70;99.90
2162;DHT22;1087;50.226;8.682;2022-12-18T10:11:03;-3.60;99.90
2162;DHT22;1087;50.226;8.682;2022-12-18T10:13:45;-3.50;99.90
2162;DHT22;1087;50.226;8.682;2022-12-18T10:16:16;-3.40;99.90
2162;DHT22;1087;50.226;8.682;2022-12-18T10:19:01;-3.30;99.90
2162;DHT22;1087;50.226;8.682;2022-12-18T10:22:21;-3.20;99.90
2162;DHT22;1087;50.226;8.682;2022-12-18T10:24:33;-3.10;99.90
2162;DHT22;1087;50.226;8.682;2022-12-18T10:27:16;-3.00;99.90
2162;DHT22;1087;50.226;8.682;2022-12-18T10:29:43;-3.10;99.90
2162;DHT22;1087;50.226;8.682;2022-12-18T10:32:18;-3.40;99.90
2162;DHT22;1087;50.226;8.682;2022-12-18T10:34:52;-3.30;99.90
2162;DHT22;1087;50.226;8.682;2022-12-18T10:37:20;-3.20;99.90
2162;DHT22;1087;50.226;8.682;2022-12-18T10:40:04;-3.10;99.90
2162;DHT22;1087;50.226;8.682;2022-12-18T10:42:31;-3.10;99.90
2162;DHT22;1087;50.226;8.682;2022-12-18T10:45:14;-3.10;99.90
2162;DHT22;1087;50.226;8.682;2022-12-18T10:47:49;-3.10;99.90
2162;DHT22;1087;50.226;8.682;2022-12-18T10:50:20;-3.00;99.90
2162;DHT22;1087;50.226;8.682;2022-12-18T10:52:59;-3.30;99.90
2162;DHT22;1087;50.226;8.682;2022-12-18T10:55:39;-3.20;99.90
2162;DHT22;1087;50.226;8.682;2022-12-18T11:00:45;-3.00;99.90
2162;DHT22;1087;50.226;8.682;2022-12-18T11:03:46;-3.10;99.90
2162;DHT22;1087;50.226;8.682;2022-12-18T11:06:14;-3.00;99.90
2162;DHT22;1087;50.226;8.682;2022-12-18T11:08:41;-3.00;99.90
2162;DHT22;1087;50.226;8.682;2022-12-18T11:11:19;-3.00;99.90
2162;DHT22;1087;50.226;8.682;2022-12-18T11:16:24;-3.00;99.90
2162;DHT22;1087;50.226;8.682;2022-12-18T11:18:49;-2.80;99.90
2162;DHT22;1087;50.226;8.682;2022-12-18T11:21:15;-2.90;99.90
2162;DHT22;1087;50.226;8.682;2022-12-18T11:23:50;-2.80;99.90
2162;DHT22;1087;50.226;8.682;2022-12-18T11:26:16;-2.90;99.90
2162;DHT22;1087;50.226;8.682;2022-12-18T11:29:07;-2.90;99.90
2162;DHT22;1087;50.226;8.682;2022-12-18T11:31:33;-2.80;99.90
2162;DHT22;1087;50.226;8.682;2022-12-18T11:34:22;-2.90;99.90
2162;DHT22;1087;50.226;8.682;2022-12-18T11:36:50;-2.80;99.90
2162;DHT22;1087;50.226;8.682;2022-12-18T11:41:53;-3.00;99.90
2162;DHT22;1087;50.226;8.682;2022-12-18T11:44:53;-2.90;99.90
2162;DHT22;1087;50.226;8.682;2022-12-18T11:49:52;-2.80;99.90
2162;DHT22;1087;50.226;8.682;2022-12-18T11:52:25;-2.90;99.90
2162;DHT22;1087;50.226;8.682;2022-12-18T11:54:52;-2.80;99.90
2162;DHT22;1087;50.226;8.682;2022-12-18T12:00:15;-2.90;99.90
2162;DHT22;1087;50.226;8.682;2022-12-18T12:05:51;-3.20;99.90
2162;DHT22;1087;50.226;8.682;2022-12-18T12:11:18;-3.00;99.90
2162;DHT22;1087;50.226;8.682;2022-12-18T12:14:15;-2.80;99.90
2162;DHT22;1087;50.226;8.682;2022-12-18T12:16:58;-2.80;99.90
2162;DHT22;1087;50.226;8.682;2022-12-18T12:19:32;-2.90;99.90
2162;DHT22;1087;50.226;8.682;2022-12-18T12:22:11;-3.10;99.90
2162;DHT22;1087;50.226;8.682;2022-12-18T12:25:02;-3.00;99.90
2162;DHT22;1087;50.226;8.682;2022-12-18T12:28:12;-3.00;99.90
2162;DHT22;1087;50.226;8.682;2022-12-18T12:31:08;-2.90;99.90
2162;DHT22;1087;50.226;8.682;2022-12-18T12:33:57;-2.80;99.90
2162;DHT22;1087;50.226;8.682;2022-12-18T12:36:52;-2.70;99.90
2162;DHT22;1087;50.226;8.682;2022-12-18T12:39:24;-2.50;99.90
2162;DHT22;1087;50.226;8.682;2022-12-18T12:41:53;-2.50;99.90
2162;DHT22;1087;50.226;8.682;2022-12-18T12:44:50;-2.50;99.90
2162;DHT22;1087;50.226;8.682;2022-12-18T12:47:22;-2.40;99.90
2162;DHT22;1087;50.226;8.682;2022-12-18T12:49:49;-2.30;99.90
2162;DHT22;1087;50.226;8.682;2022-12-18T12:52:21;-2.20;99.90
2162;DHT22;1087;50.226;8.682;2022-12-18T12:54:49;-2.10;99.90
2162;DHT22;1087;50.226;8.682;2022-12-18T12:57:21;-2.30;99.90
2162;DHT22;1087;50.226;8.682;2022-12-18T13:02:47;-2.10;99.90
2162;DHT22;1087;50.226;8.682;2022-12-18T13:08:26;-2.10;99.90
2162;DHT22;1087;50.226;8.682;2022-12-18T13:10:55;-2.10;99.90
2162;DHT22;1087;50.226;8.682;2022-12-18T13:14:12;-2.10;99.90
2162;DHT22;1087;50.226;8.682;2022-12-18T13:16:45;-2.00;99.90
2162;DHT22;1087;50.226;8.682;2022-12-18T13:19:23;-2.00;99.90
2162;DHT22;1087;50.226;8.682;2022-12-18T13:21:55;-2.00;99.90
2162;DHT22;1087;50.226;8.682;2022-12-18T13:24:26;-2.10;99.90
2162;DHT22;1087;50.226;8.682;2022-12-18T13:26:52;-2.00;99.90
2162;DHT22;1087;50.226;8.682;2022-12-18T13:29:42;-2.00;99.90
2162;DHT22;1087;50.226;8.682;2022-12-18T13:32:23;-1.90;99.90
2162;DHT22;1087;50.226;8.682;2022-12-18T13:37:54;-2.00;99.90
2162;DHT22;1087;50.226;8.682;2022-12-18T13:45:47;-2.00;99.90
2162;DHT22;1087;50.226;8.682;2022-12-18T13:48:23;-2.00;99.90
2162;DHT22;1087;50.226;8.682;2022-12-18T13:50:53;-1.90;99.90
2162;DHT22;1087;50.226;8.682;2022-12-18T13:53:24;-1.80;99.90
2162;DHT22;1087;50.226;8.682;2022-12-18T13:55:50;-1.90;99.90
2162;DHT22;1087;50.226;8.682;2022-12-18T13:58:16;-2.00;99.90
2162;DHT22;1087;50.226;8.682;2022-12-18T14:00:42;-2.00;99.90
2162;DHT22;1087;50.226;8.682;2022-12-18T14:03:26;-1.90;99.90
2162;DHT22;1087;50.226;8.682;2022-12-18T14:06:05;-1.80;99.90
2162;DHT22;1087;50.226;8.682;2022-12-18T14:08:38;-1.80;99.90
2162;DHT22;1087;50.226;8.682;2022-12-18T14:11:04;-1.90;99.90
2162;DHT22;1087;50.226;8.682;2022-12-18T14:13:34;-1.90;99.90
2162;DHT22;1087;50.226;8.682;2022-12-18T14:16:03;-1.90;99.90
2162;DHT22;1087;50.226;8.682;2022-12-18T14:18:50;-1.90;99.90
2162;DHT22;1087;50.226;8.682;2022-12-18T14:21:28;-1.90;99.90
2162;DHT22;1087;50.226;8.682;2022-12-18T14:24:23;-1.90;99.90
2162;DHT22;1087;50.226;8.682;2022-12-18T14:26:50;-1.80;99.90
2162;DHT22;1087;50.226;8.682;2022-12-18T14:29:27;-1.80;99.90
2162;DHT22;1087;50.226;8.682;2022-12-18T14:34:39;-1.80;99.90
2162;DHT22;1087;50.226;8.682;2022-12-18T14:37:07;-1.60;99.90
2162;DHT22;1087;50.226;8.682;2022-12-18T14:39:34;-1.70;99.90
2162;DHT22;1087;50.226;8.682;2022-12-18T14:41:59;-1.60;99.90
2162;DHT22;1087;50.226;8.682;2022-12-18T14:44:25;-1.60;99.90
2162;DHT22;1087;50.226;8.682;2022-12-18T14:46:51;-1.60;99.90
2162;DHT22;1087;50.226;8.682;2022-12-18T14:49:30;-1.60;99.90
2162;DHT22;1087;50.226;8.682;2022-12-18T14:52:01;-1.60;99.90
2162;DHT22;1087;50.226;8.682;2022-12-18T14:54:28;-1.60;99.90
2162;DHT22;1087;50.226;8.682;2022-12-18T14:57:23;-1.60;99.90
2162;DHT22;1087;50.226;8.682;2022-12-18T14:59:50;-1.70;99.90
2162;DHT22;1087;50.226;8.682;2022-12-18T15:02:23;-1.80;99.90
2162;DHT22;1087;50.226;8.682;2022-12-18T15:05:24;-1.80;99.90
2162;DHT22;1087;50.226;8.682;2022-12-18T15:07:50;-1.90;99.90
2162;DHT22;1087;50.226;8.682;2022-12-18T15:10:25;-1.80;99.90
2162;DHT22;1087;50.226;8.682;2022-12-18T15:21:06;-1.80;99.90
2162;DHT22;1087;50.226;8.682;2022-12-18T15:26:12;-1.80;99.90
2162;DHT22;1087;50.226;8.682;2022-12-18T15:28:51;-1.80;99.90
2162;DHT22;1087;50.226;8.682;2022-12-18T15:31:21;-1.90;99.90
2162;DHT22;1087;50.226;8.682;2022-12-18T15:36:19;-1.80;99.90
2162;DHT22;1087;50.226;8.682;2022-12-18T15:38:52;-1.80;99.90
2162;DHT22;1087;50.226;8.682;2022-12-18T15:41:21;-1.70;99.90
2162;DHT22;1087;50.226;8.682;2022-12-18T15:43:49;-1.70;99.90
2162;DHT22;1087;50.226;8.682;2022-12-18T15:46:17;-1.70;99.90
2162;DHT22;1087;50.226;8.682;2022-12-18T15:48:49;-1.70;99.90
2162;DHT22;1087;50.226;8.682;2022-12-18T15:51:18;-1.80;99.90
2162;DHT22;1087;50.226;8.682;2022-12-18T15:53:46;-1.70;99.90
2162;DHT22;1087;50.226;8.682;2022-12-18T15:56:13;-1.80;99.90
2162;DHT22;1087;50.226;8.682;2022-12-18T15:58:59;-1.80;99.90
2162;DHT22;1087;50.226;8.682;2022-12-18T16:01:27;-1.80;99.90
2162;DHT22;1087;50.226;8.682;2022-12-18T16:03:54;-1.80;99.90
2162;DHT22;1087;50.226;8.682;2022-12-18T16:06:21;-1.80;99.90
2162;DHT22;1087;50.226;8.682;2022-12-18T16:08:46;-1.70;99.90
2162;DHT22;1087;50.226;8.682;2022-12-18T16:11:27;-1.80;99.90
2162;DHT22;1087;50.226;8.682;2022-12-18T16:16:51;-1.90;99.90
2162;DHT22;1087;50.226;8.682;2022-12-18T16:19:18;-1.90;99.90
2162;DHT22;1087;50.226;8.682;2022-12-18T16:21:44;-1.80;99.90
2162;DHT22;1087;50.226;8.682;2022-12-18T16:24:19;-1.80;99.90
2162;DHT22;1087;50.226;8.682;2022-12-18T16:26:47;-1.80;99.90
2162;DHT22;1087;50.226;8.682;2022-12-18T16:29:13;-1.80;99.90
2162;DHT22;1087;50.226;8.682;2022-12-18T16:31:38;-1.80;99.90
2162;DHT22;1087;50.226;8.682;2022-12-18T16:36:52;-1.80;99.90
2162;DHT22;1087;50.226;8.682;2022-12-18T16:39:19;-1.70;99.90
2162;DHT22;1087;50.226;8.682;2022-12-18T16:41:45;-1.70;99.90
2162;DHT22;1087;50.226;8.682;2022-12-18T16:44:11;-1.70;99.90
2162;DHT22;1087;50.226;8.682;2022-12-18T16:46:37;-1.70;99.90
2162;DHT22;1087;50.226;8.682;2022-12-18T16:49:04;-1.60;99.90
2162;DHT22;1087;50.226;8.682;2022-12-18T16:51:30;-1.60;99.90
2162;DHT22;1087;50.226;8.682;2022-12-18T16:53:58;-1.70;99.90
2162;DHT22;1087;50.226;8.682;2022-12-18T16:56:23;-1.70;99.90
2162;DHT22;1087;50.226;8.682;2022-12-18T16:58:54;-1.70;99.90
2162;DHT22;1087;50.226;8.682;2022-12-18T17:01:20;-1.70;99.90
2162;DHT22;1087;50.226;8.682;2022-12-18T17:04:00;-1.70;99.90
2162;DHT22;1087;50.226;8.682;2022-12-18T17:06:27;-1.70;99.90
2162;DHT22;1087;50.226;8.682;2022-12-18T17:09:00;-1.70;99.90
2162;DHT22;1087;50.226;8.682;2022-12-18T17:11:28;-1.80;99.90
2162;DHT22;1087;50.226;8.682;2022-12-18T17:13:54;-1.80;99.90
2162;DHT22;1087;50.226;8.682;2022-12-18T17:16:20;-1.80;99.90
2162;DHT22;1087;50.226;8.682;2022-12-18T17:18:46;-1.70;99.90
2162;DHT22;1087;50.226;8.682;2022-12-18T17:21:12;-1.70;99.90
2162;DHT22;1087;50.226;8.682;2022-12-18T17:23:40;-1.60;99.90
2162;DHT22;1087;50.226;8.682;2022-12-18T17:26:06;-1.60;99.90
2162;DHT22;1087;50.226;8.682;2022-12-18T17:28:33;-1.60;99.90
2162;DHT22;1087;50.226;8.682;2022-12-18T17:30:59;-1.60;99.90
2162;DHT22;1087;50.226;8.682;2022-12-18T17:33:24;-1.60;99.90
2162;DHT22;1087;50.226;8.682;2022-12-18T17:35:50;-1.60;99.90
2162;DHT22;1087;50.226;8.682;2022-12-18T17:38:16;-1.60;99.90